Time;durP1;ratioP1;P1;durP2;ratioP2;P2;SDS_P1;SDS_P2;PMS_P1;PMS_P2;Temp;Humidity;BMP_temperature;BMP_pressure;BME280_temperature;BME280_humidity;BME280_pressure;Samples;Min_cycle;Max_cycle;Signal;HPM_P1;HPM_P2
2023/08/31 00:00:44;;;;;;;1.90;0.50;;;12.20;99.90;;;;;;5016352;28;20037;-72
2023/08/31 00:03:10;;;;;;;3.47;0.63;;;12.10;99.90;;;;;;5020736;28;20026;-72
2023/08/31 00:05:42;;;;;;;2.85;0.60;;;12.10;99.90;;;;;;5015721;28;20023;-72
2023/08/31 00:08:09;;;;;;;2.70;0.45;;;12.10;99.90;;;;;;5016905;28;20068;-72
2023/08/31 00:10:35;;;;;;;1.85;0.60;;;12.10;99.90;;;;;;5019288;28;20022;-71
2023/08/31 00:13:02;;;;;;;4.03;0.88;;;12.10;99.90;;;;;;5018126;28;20037;-72
2023/08/31 00:15:28;;;;;;;4.15;1.00;;;12.10;99.90;;;;;;5028775;28;20073;-71
2023/08/31 00:17:54;;;;;;;2.28;1.00;;;12.10;99.90;;;;;;5023157;28;20049;-72
2023/08/31 00:20:21;;;;;;;4.07;1.00;;;12.10;99.90;;;;;;5023383;28;20034;-72
2023/08/31 00:22:47;;;;;;;1.55;0.60;;;12.20;99.90;;;;;;5021924;28;20056;-70
2023/08/31 00:25:12;;;;;;;2.72;0.85;;;12.20;99.90;;;;;;5024001;28;20029;-71
2023/08/31 00:27:40;;;;;;;7.10;1.50;;;12.20;99.90;;;;;;5019589;28;20041;-71
2023/08/31 00:30:09;;;;;;;8.27;0.80;;;12.20;99.90;;;;;;5022749;28;20080;-71
2023/08/31 00:32:35;;;;;;;3.88;0.90;;;12.20;99.90;;;;;;5020726;28;20030;-71
2023/08/31 00:35:00;;;;;;;5.38;1.33;;;12.20;99.90;;;;;;5024655;28;20408;-72
2023/08/31 00:37:26;;;;;;;3.30;0.68;;;12.30;99.90;;;;;;5020974;28;20060;-70
2023/08/31 00:39:52;;;;;;;8.05;0.90;;;12.30;99.90;;;;;;5021436;28;20033;-71
2023/08/31 00:42:18;;;;;;;4.22;1.25;;;12.30;99.90;;;;;;5021257;28;20038;-72
2023/08/31 00:44:46;;;;;;;7.07;1.52;;;12.30;99.90;;;;;;5021336;28;20034;-71
2023/08/31 00:47:12;;;;;;;3.45;1.00;;;12.40;99.90;;;;;;5022896;28;20037;-72
2023/08/31 00:49:39;;;;;;;4.10;0.98;;;12.50;99.90;;;;;;5020674;28;20030;-71
2023/08/31 00:52:05;;;;;;;1.55;0.60;;;12.60;99.90;;;;;;5023841;28;20484;-72
2023/08/31 00:54:31;;;;;;;5.35;0.95;;;12.60;99.90;;;;;;5020465;28;20034;-71
2023/08/31 00:56:57;;;;;;;2.65;0.90;;;12.60;99.90;;;;;;5023447;28;20037;-71
2023/08/31 00:59:24;;;;;;;3.25;0.85;;;12.70;99.90;;;;;;5022041;28;20042;-71
2023/08/31 01:02:11;;;;;;;2.25;0.80;;;12.70;99.90;;;;;;5020839;28;20134;-71
2023/08/31 01:05:08;;;;;;;2.90;0.98;;;12.60;99.90;;;;;;5049216;28;20080;-71
2023/08/31 01:07:37;;;;;;;5.65;1.42;;;12.60;99.90;;;;;;5019464;28;20354;-72
2023/08/31 01:10:12;;;;;;;6.88;0.77;;;12.60;99.90;;;;;;5020550;28;20034;-72
2023/08/31 01:12:53;;;;;;;7.07;1.98;;;12.70;99.90;;;;;;5020239;28;20567;-71
2023/08/31 01:15:20;;;;;;;2.92;0.93;;;12.60;99.90;;;;;;5021653;28;20048;-71
2023/08/31 01:17:52;;;;;;;3.88;1.15;;;12.60;99.90;;;;;;5021001;28;20110;-72
2023/08/31 01:20:47;;;;;;;4.32;1.00;;;12.60;99.90;;;;;;5020368;28;20041;-73
2023/08/31 01:23:19;;;;;;;3.60;1.67;;;12.60;99.90;;;;;;5044763;28;20033;-71
2023/08/31 01:25:48;;;;;;;5.90;0.85;;;12.60;99.90;;;;;;5022677;28;20037;-71
2023/08/31 01:28:13;;;;;;;3.55;0.85;;;12.60;99.90;;;;;;5021525;28;20056;-73
2023/08/31 01:30:39;;;;;;;4.57;1.52;;;12.60;99.90;;;;;;5021539;28;20485;-70
2023/08/31 01:33:04;;;;;;;6.07;1.17;;;12.60;99.90;;;;;;5018170;28;20045;-71
2023/08/31 01:35:41;;;;;;;5.65;0.98;;;12.60;99.90;;;;;;5022895;28;20526;-74
2023/08/31 01:38:08;;;;;;;4.80;1.50;;;12.60;99.90;;;;;;5020079;28;20040;-71
2023/08/31 01:40:33;;;;;;;3.42;1.00;;;12.60;99.90;;;;;;5022415;28;20030;-73
2023/08/31 01:43:01;;;;;;;3.72;1.60;;;12.50;99.90;;;;;;5021207;28;20057;-72
2023/08/31 01:45:27;;;;;;;4.80;1.60;;;12.60;99.90;;;;;;5018876;28;20072;-72
2023/08/31 01:47:53;;;;;;;3.53;0.98;;;12.60;99.90;;;;;;5022288;28;20484;-72
2023/08/31 01:50:18;;;;;;;6.25;1.08;;;12.60;99.90;;;;;;5024091;28;20047;-71
2023/08/31 01:52:44;;;;;;;3.08;1.10;;;12.60;99.90;;;;;;5021119;28;20032;-70
2023/08/31 01:55:09;;;;;;;4.00;0.93;;;12.60;99.90;;;;;;5018791;28;20038;-71
2023/08/31 01:57:35;;;;;;;2.97;1.33;;;12.60;99.90;;;;;;5023091;28;20033;-72
2023/08/31 02:00:01;;;;;;;3.47;1.38;;;12.60;99.90;;;;;;5018506;28;20107;-72
2023/08/31 02:02:26;;;;;;;4.05;0.90;;;12.60;99.90;;;;;;5022438;28;20041;-72
2023/08/31 02:04:52;;;;;;;1.88;0.90;;;12.60;99.90;;;;;;5018053;28;20082;-71
2023/08/31 02:07:19;;;;;;;3.28;0.90;;;12.60;99.90;;;;;;5021725;28;20037;-71
2023/08/31 02:09:44;;;;;;;6.43;0.63;;;12.60;99.90;;;;;;5026706;28;20117;-71
2023/08/31 02:12:10;;;;;;;6.95;0.70;;;12.60;99.90;;;;;;5028583;28;20454;-73
2023/08/31 02:14:36;;;;;;;4.53;0.80;;;12.60;99.90;;;;;;5026275;28;20078;-71
2023/08/31 02:17:02;;;;;;;0.85;0.43;;;12.60;99.90;;;;;;5019432;28;20061;-71
2023/08/31 02:19:27;;;;;;;1.77;0.50;;;12.60;99.90;;;;;;5022119;28;20072;-72
2023/08/31 02:21:53;;;;;;;2.42;0.52;;;12.60;99.90;;;;;;5019063;28;20034;-71
2023/08/31 02:24:19;;;;;;;2.40;0.77;;;12.60;99.90;;;;;;5028318;28;20030;-72
2023/08/31 02:26:45;;;;;;;4.75;0.55;;;12.50;99.90;;;;;;5028449;28;20033;-73
2023/08/31 02:29:10;;;;;;;2.63;0.47;;;12.60;99.90;;;;;;5018578;28;20686;-73
2023/08/31 02:31:37;;;;;;;3.17;0.38;;;12.50;99.90;;;;;;5019402;28;20042;-70
2023/08/31 02:34:03;;;;;;;1.35;0.30;;;12.50;99.90;;;;;;5019103;28;20033;-71
2023/08/31 02:36:29;;;;;;;1.95;0.45;;;12.50;99.90;;;;;;5020629;28;20042;-71
2023/08/31 02:38:56;;;;;;;3.08;0.47;;;12.50;99.90;;;;;;5019055;28;20026;-72
2023/08/31 02:41:21;;;;;;;0.77;0.30;;;12.50;99.90;;;;;;5021396;28;20091;-74
2023/08/31 02:43:49;;;;;;;4.30;1.30;;;12.60;99.90;;;;;;5024120;28;20029;-71
2023/08/31 02:46:15;;;;;;;1.80;0.60;;;12.60;99.90;;;;;;5020652;28;20072;-71
2023/08/31 02:48:41;;;;;;;1.33;0.40;;;12.60;99.90;;;;;;5020098;28;20501;-71
2023/08/31 02:51:06;;;;;;;1.15;0.40;;;12.70;99.90;;;;;;5017557;28;20486;-71
2023/08/31 02:53:32;;;;;;;2.53;0.57;;;12.60;99.90;;;;;;5021307;28;20041;-71
2023/08/31 02:55:58;;;;;;;1.35;0.50;;;12.60;99.90;;;;;;5016797;28;20026;-72
2023/08/31 02:58:23;;;;;;;1.63;0.20;;;12.60;99.90;;;;;;5021657;28;20037;-73
2023/08/31 03:00:49;;;;;;;1.65;0.40;;;12.60;99.90;;;;;;5018225;28;20105;-73
2023/08/31 03:03:16;;;;;;;2.72;0.32;;;12.60;99.90;;;;;;5018168;28;20029;-72
2023/08/31 03:05:41;;;;;;;2.78;0.10;;;12.50;99.90;;;;;;5020100;28;20040;-73
2023/08/31 03:08:07;;;;;;;2.17;0.30;;;12.50;99.90;;;;;;5018621;28;20117;-72
2023/08/31 03:10:32;;;;;;;0.40;0.20;;;12.50;99.90;;;;;;5018513;28;20489;-73
2023/08/31 03:12:58;;;;;;;3.10;0.45;;;12.50;99.90;;;;;;5020496;28;20124;-72
2023/08/31 03:15:24;;;;;;;0.60;0.20;;;12.50;99.90;;;;;;5017881;28;20045;-72
2023/08/31 03:17:49;;;;;;;0.35;0.20;;;12.50;99.90;;;;;;5023479;28;20042;-71
2023/08/31 03:20:15;;;;;;;2.55;0.35;;;12.50;99.90;;;;;;5019325;28;20032;-72
2023/08/31 03:22:40;;;;;;;2.28;0.50;;;12.60;99.90;;;;;;5016481;28;20126;-73
2023/08/31 03:25:06;;;;;;;2.53;0.43;;;12.50;99.90;;;;;;5018470;28;20072;-72
2023/08/31 03:27:32;;;;;;;1.77;0.50;;;12.60;99.90;;;;;;5016686;28;20065;-72
2023/08/31 03:29:58;;;;;;;3.17;0.68;;;12.60;99.90;;;;;;5019244;28;20069;-72
2023/08/31 03:32:23;;;;;;;2.25;0.70;;;12.60;99.90;;;;;;5017186;28;20494;-72
2023/08/31 03:34:49;;;;;;;3.45;1.00;;;12.70;99.90;;;;;;5019078;28;20376;-72
2023/08/31 03:37:15;;;;;;;3.15;1.15;;;12.70;99.90;;;;;;5018334;28;20046;-72
2023/08/31 03:39:42;;;;;;;5.20;1.40;;;12.80;99.90;;;;;;5019364;28;20069;-72
2023/08/31 03:42:11;;;;;;;4.05;1.35;;;12.80;99.90;;;;;;5017501;28;20370;-72
2023/08/31 03:44:37;;;;;;;5.65;1.92;;;12.80;99.90;;;;;;5017097;28;20695;-72
2023/08/31 03:47:03;;;;;;;4.43;1.88;;;12.90;99.90;;;;;;5019516;28;20044;-71
2023/08/31 03:49:30;;;;;;;6.40;2.40;;;12.90;99.90;;;;;;5018006;28;20037;-73
2023/08/31 03:51:55;;;;;;;8.57;2.40;;;12.90;99.90;;;;;;5019953;28;20041;-72
2023/08/31 03:54:21;;;;;;;6.45;2.28;;;13.00;99.90;;;;;;5016514;28;20444;-72
2023/08/31 03:56:46;;;;;;;7.80;2.72;;;13.00;99.90;;;;;;5019579;28;20026;-73
2023/08/31 03:59:12;;;;;;;5.38;2.60;;;13.10;99.90;;;;;;5016788;28;20037;-71
2023/08/31 04:01:38;;;;;;;5.88;2.35;;;13.10;99.90;;;;;;5019758;28;20535;-71
2023/08/31 04:04:04;;;;;;;7.70;2.55;;;13.10;99.90;;;;;;5017184;28;20033;-73
2023/08/31 04:06:30;;;;;;;5.22;2.00;;;13.10;99.90;;;;;;5019208;28;20036;-73
2023/08/31 04:08:55;;;;;;;10.50;2.97;;;13.20;99.90;;;;;;5017091;28;20036;-73
2023/08/31 04:11:21;;;;;;;6.38;2.30;;;13.20;99.90;;;;;;5020717;28;20032;-74
2023/08/31 04:13:47;;;;;;;4.28;2.40;;;13.20;99.90;;;;;;5014624;28;20033;-72
2023/08/31 04:16:13;;;;;;;5.18;2.45;;;13.10;99.90;;;;;;5020242;28;20037;-73
2023/08/31 04:18:38;;;;;;;7.80;2.92;;;13.10;99.90;;;;;;5020389;28;20033;-73
2023/08/31 04:21:04;;;;;;;4.70;2.53;;;13.10;99.90;;;;;;5018110;28;20462;-74
2023/08/31 04:23:30;;;;;;;7.13;2.63;;;13.10;99.90;;;;;;5019401;28;20033;-74
2023/08/31 04:25:57;;;;;;;6.68;2.92;;;13.00;99.90;;;;;;5015864;28;20401;-73
2023/08/31 04:28:23;;;;;;;8.43;2.45;;;13.00;99.90;;;;;;5020343;28;20088;-74
2023/08/31 04:30:49;;;;;;;5.88;2.55;;;13.00;99.90;;;;;;5015094;28;20508;-73
2023/08/31 04:33:15;;;;;;;6.05;3.28;;;13.00;99.90;;;;;;5019157;28;20034;-74
2023/08/31 04:35:41;;;;;;;7.05;2.90;;;13.00;99.90;;;;;;5018606;28;20493;-74
2023/08/31 04:38:07;;;;;;;7.95;3.13;;;13.00;99.90;;;;;;5020647;28;20037;-74
2023/08/31 04:40:32;;;;;;;7.25;3.33;;;13.00;99.90;;;;;;5049941;28;20041;-73
2023/08/31 04:42:58;;;;;;;5.55;2.67;;;13.00;99.90;;;;;;5016984;28;20780;-72
2023/08/31 04:45:24;;;;;;;16.17;3.60;;;13.00;99.90;;;;;;5011891;28;20485;-73
2023/08/31 04:47:50;;;;;;;8.43;3.17;;;13.00;99.90;;;;;;5018818;28;20520;-74
2023/08/31 04:50:17;;;;;;;7.50;1.85;;;12.90;99.90;;;;;;5051825;28;20034;-73
2023/08/31 04:52:42;;;;;;;4.53;1.33;;;12.90;99.90;;;;;;5031087;28;20091;-73
2023/08/31 04:55:08;;;;;;;5.53;0.95;;;12.90;99.90;;;;;;5019811;28;20493;-74
2023/08/31 04:57:34;;;;;;;2.58;0.82;;;12.80;99.90;;;;;;5017253;28;20470;-74
2023/08/31 05:00:00;;;;;;;2.55;0.80;;;12.80;99.90;;;;;;5024075;28;20044;-74
2023/08/31 05:02:25;;;;;;;4.95;0.90;;;12.80;99.90;;;;;;5023449;28;20030;-75
2023/08/31 05:04:51;;;;;;;1.13;0.50;;;12.70;99.90;;;;;;5014066;28;20076;-76
2023/08/31 05:07:17;;;;;;;5.40;1.13;;;12.70;99.90;;;;;;5024012;28;20124;-74
2023/08/31 05:09:42;;;;;;;2.35;0.55;;;12.70;99.90;;;;;;5026882;28;20052;-74
2023/08/31 05:12:08;;;;;;;2.20;0.85;;;12.60;99.90;;;;;;5028960;28;20400;-76
2023/08/31 05:14:37;;;;;;;1.80;0.95;;;12.60;99.90;;;;;;5028438;28;20040;-76
2023/08/31 05:17:06;;;;;;;4.55;1.23;;;12.60;99.90;;;;;;5028785;28;20026;-73
2023/08/31 05:19:31;;;;;;;4.57;1.80;;;12.50;99.90;;;;;;5028883;28;20033;-74
2023/08/31 05:21:57;;;;;;;5.68;2.17;;;12.50;99.90;;;;;;5028888;28;20080;-74
2023/08/31 05:24:23;;;;;;;8.55;3.60;;;12.50;99.90;;;;;;5027113;28;20025;-74
2023/08/31 05:26:51;;;;;;;8.68;2.90;;;12.50;99.90;;;;;;5024139;28;20068;-75
2023/08/31 05:29:17;;;;;;;11.23;3.60;;;12.50;99.90;;;;;;5027888;28;20033;-74
2023/08/31 05:31:42;;;;;;;10.18;3.90;;;12.60;99.90;;;;;;5027377;28;20127;-74
2023/08/31 05:34:10;;;;;;;9.65;3.88;;;12.60;99.90;;;;;;5028196;28;20160;-75
2023/08/31 05:36:36;;;;;;;6.78;3.80;;;12.60;99.90;;;;;;5028553;28;20064;-74
2023/08/31 05:39:02;;;;;;;8.80;3.80;;;12.70;99.90;;;;;;5028527;28;20030;-74
2023/08/31 05:41:28;;;;;;;8.85;3.97;;;12.70;99.90;;;;;;5028621;28;20079;-74
2023/08/31 05:43:54;;;;;;;7.75;3.65;;;12.70;99.90;;;;;;5028577;28;20432;-74
2023/08/31 05:46:19;;;;;;;9.48;3.03;;;12.80;99.90;;;;;;5028407;28;20033;-75
2023/08/31 05:48:45;;;;;;;8.02;2.92;;;12.80;99.90;;;;;;5022164;28;20034;-74
2023/08/31 05:51:10;;;;;;;6.75;3.17;;;12.80;99.90;;;;;;5014140;28;20029;-75
2023/08/31 05:53:36;;;;;;;7.07;2.50;;;12.80;99.90;;;;;;5022149;28;20030;-74
2023/08/31 05:56:04;;;;;;;8.18;2.90;;;12.80;99.90;;;;;;5023161;28;20030;-74
2023/08/31 05:58:32;;;;;;;6.65;2.60;;;12.80;99.90;;;;;;5018836;28;20061;-74
2023/08/31 06:00:58;;;;;;;6.35;2.30;;;12.80;99.90;;;;;;5025275;28;20032;-75
2023/08/31 06:03:23;;;;;;;8.32;2.35;;;12.80;99.90;;;;;;5028515;28;20026;-74
2023/08/31 06:05:50;;;;;;;4.70;1.90;;;12.80;99.90;;;;;;5019002;28;20037;-74
2023/08/31 06:08:15;;;;;;;8.55;2.38;;;12.80;99.90;;;;;;5019056;28;20076;-74
2023/08/31 06:10:41;;;;;;;4.78;2.33;;;12.80;99.90;;;;;;5017199;28;20030;-74
2023/08/31 06:13:07;;;;;;;9.13;2.00;;;12.80;99.90;;;;;;5026333;28;20038;-73
2023/08/31 06:15:32;;;;;;;9.75;2.10;;;12.80;99.90;;;;;;5020607;28;20026;-74
2023/08/31 06:17:58;;;;;;;3.60;1.45;;;12.80;99.90;;;;;;5040919;28;20677;-74
2023/08/31 06:20:23;;;;;;;3.72;2.03;;;12.80;99.90;;;;;;5032125;28;20037;-74
2023/08/31 06:22:49;;;;;;;3.33;1.60;;;12.90;99.90;;;;;;5022020;28;20087;-73
2023/08/31 06:25:16;;;;;;;6.13;2.10;;;13.00;99.90;;;;;;5023056;28;20112;-74
2023/08/31 06:27:42;;;;;;;3.38;1.45;;;12.90;99.90;;;;;;5026397;28;20105;-74
2023/08/31 06:30:11;;;;;;;6.63;1.48;;;13.00;99.90;;;;;;5022083;28;20556;-74
2023/08/31 06:32:37;;;;;;;7.28;1.67;;;13.00;99.90;;;;;;5014044;28;20052;-74
2023/08/31 06:35:03;;;;;;;4.15;1.33;;;13.10;99.90;;;;;;5027123;28;20045;-75
2023/08/31 06:37:28;;;;;;;8.10;1.80;;;13.10;99.90;;;;;;5020420;28;20041;-74
2023/08/31 06:39:54;;;;;;;5.03;1.30;;;13.10;99.90;;;;;;5019426;28;20041;-74
2023/08/31 06:42:20;;;;;;;3.97;1.30;;;13.20;99.90;;;;;;5013960;28;20033;-73
2023/08/31 06:44:46;;;;;;;6.35;1.55;;;13.10;99.90;;;;;;5017374;28;20134;-74
2023/08/31 06:47:13;;;;;;;3.53;1.20;;;13.20;99.90;;;;;;5016639;28;20091;-74
2023/08/31 06:49:39;;;;;;;7.00;1.00;;;13.20;99.90;;;;;;5021984;28;20065;-75
2023/08/31 06:52:07;;;;;;;6.18;1.60;;;13.20;99.90;;;;;;5017788;28;20113;-74
2023/08/31 06:54:33;;;;;;;2.38;1.13;;;13.30;99.90;;;;;;5025187;28;20033;-74
2023/08/31 06:56:58;;;;;;;3.95;0.80;;;13.40;99.90;;;;;;5021965;28;20038;-74
2023/08/31 06:59:24;;;;;;;4.53;1.10;;;13.30;99.90;;;;;;5044041;28;20025;-75
2023/08/31 07:01:50;;;;;;;3.00;1.00;;;13.40;99.90;;;;;;5036805;28;20040;-73
2023/08/31 07:04:15;;;;;;;5.38;0.82;;;13.50;99.90;;;;;;5030026;28;20017;-73
2023/08/31 07:06:41;;;;;;;3.80;0.93;;;13.50;99.90;;;;;;5008842;28;20149;-75
2023/08/31 07:09:08;;;;;;;9.38;1.10;;;13.50;99.90;;;;;;5017503;28;20084;-74
2023/08/31 07:11:34;;;;;;;6.53;1.48;;;13.60;99.90;;;;;;5013006;28;20084;-74
2023/08/31 07:13:59;;;;;;;3.30;1.23;;;13.60;99.90;;;;;;5013537;28;20030;-74
2023/08/31 07:16:25;;;;;;;5.90;1.00;;;13.60;99.90;;;;;;5015458;28;20541;-76
2023/08/31 07:18:51;;;;;;;7.88;1.02;;;13.70;99.90;;;;;;5039398;28;20048;-76
2023/08/31 07:21:17;;;;;;;5.15;1.35;;;13.60;99.90;;;;;;5010334;28;20030;-75
2023/08/31 07:23:42;;;;;;;5.53;1.25;;;13.70;99.90;;;;;;5021106;28;20025;-75
2023/08/31 07:26:08;;;;;;;4.88;1.35;;;13.80;99.90;;;;;;5021931;28;20112;-73
2023/08/31 07:28:34;;;;;;;5.38;1.77;;;14.00;99.90;;;;;;5016620;28;20026;-74
2023/08/31 07:31:04;;;;;;;6.18;1.92;;;14.20;99.90;;;;;;5020834;28;20061;-74
2023/08/31 07:33:34;;;;;;;3.65;1.40;;;14.50;99.90;;;;;;5008867;28;20117;-73
2023/08/31 07:36:02;;;;;;;5.25;1.33;;;14.60;99.90;;;;;;5015918;28;20030;-73
2023/08/31 07:38:27;;;;;;;3.67;1.40;;;14.70;99.90;;;;;;5021098;28;20025;-75
2023/08/31 07:40:53;;;;;;;4.15;1.40;;;14.80;99.90;;;;;;5010575;28;20492;-74
2023/08/31 07:43:19;;;;;;;9.05;1.85;;;14.90;99.90;;;;;;5026985;28;20036;-73
2023/08/31 07:45:44;;;;;;;8.10;2.20;;;14.90;99.90;;;;;;5007926;28;20026;-75
2023/08/31 07:48:10;;;;;;;4.22;2.13;;;15.00;99.90;;;;;;5015500;28;20030;-74
2023/08/31 07:50:35;;;;;;;9.80;2.33;;;15.10;99.90;;;;;;5021117;28;20053;-73
2023/08/31 07:53:01;;;;;;;6.32;2.28;;;15.10;99.90;;;;;;5009121;28;20501;-73
2023/08/31 07:55:27;;;;;;;5.43;2.10;;;15.30;99.90;;;;;;5015628;28;20033;-74
2023/08/31 07:57:52;;;;;;;4.40;2.17;;;15.30;99.90;;;;;;5026757;28;20036;-75
2023/08/31 08:00:18;;;;;;;7.53;2.63;;;15.30;99.90;;;;;;5030187;28;20038;-74
2023/08/31 08:02:46;;;;;;;5.18;1.55;;;15.40;99.90;;;;;;5019547;28;20489;-75
2023/08/31 08:05:11;;;;;;;4.72;1.45;;;15.60;99.90;;;;;;5012987;28;20041;-74
2023/08/31 08:07:37;;;;;;;5.80;1.75;;;15.70;99.90;;;;;;5016973;28;20561;-74
2023/08/31 08:10:03;;;;;;;2.83;1.75;;;15.60;99.90;;;;;;5015742;28;20121;-74
2023/08/31 08:12:40;;;;;;;4.32;1.88;;;15.70;99.90;;;;;;5023293;28;20447;-74
2023/08/31 08:15:07;;;;;;;3.50;1.80;;;15.70;99.90;;;;;;5012509;28;20080;-75
2023/08/31 08:17:33;;;;;;;3.72;1.55;;;15.90;99.90;;;;;;5023300;28;20045;-74
2023/08/31 08:19:59;;;;;;;4.63;1.40;;;15.90;99.90;;;;;;5017386;28;20057;-74
2023/08/31 08:22:25;;;;;;;4.22;1.10;;;16.10;99.90;;;;;;5027155;28;20393;-73
2023/08/31 08:24:51;;;;;;;3.85;1.25;;;16.20;99.90;;;;;;5024510;28;20040;-74
2023/08/31 08:27:18;;;;;;;4.32;1.52;;;16.40;99.90;;;;;;5022836;28;20026;-74
2023/08/31 08:29:44;;;;;;;3.80;0.70;;;16.50;99.90;;;;;;5015372;28;20042;-74
2023/08/31 08:32:10;;;;;;;3.08;0.70;;;16.60;99.90;;;;;;5019564;28;20396;-74
2023/08/31 08:34:35;;;;;;;2.65;0.63;;;16.60;99.90;;;;;;5016704;28;20029;-74
2023/08/31 08:37:03;;;;;;;3.60;0.75;;;16.70;99.90;;;;;;5018824;28;20033;-73
2023/08/31 08:39:29;;;;;;;2.53;0.60;;;16.60;99.90;;;;;;5012279;28;20037;-74
2023/08/31 08:41:57;;;;;;;3.05;0.88;;;16.80;99.90;;;;;;5018073;28;20111;-75
2023/08/31 08:44:25;;;;;;;4.15;1.38;;;16.90;99.90;;;;;;5022438;28;20041;-73
2023/08/31 08:46:52;;;;;;;1.92;0.60;;;16.90;99.90;;;;;;5019621;28;20053;-73
2023/08/31 08:49:18;;;;;;;8.05;0.80;;;16.90;99.90;;;;;;5020470;28;20069;-74
2023/08/31 08:51:46;;;;;;;6.70;0.47;;;17.00;99.90;;;;;;5019455;28;20049;-73
2023/08/31 08:54:13;;;;;;;7.20;0.43;;;17.00;99.90;;;;;;5020780;28;20025;-73
2023/08/31 08:56:39;;;;;;;0.52;0.20;;;17.10;99.90;;;;;;5025573;28;20441;-75
2023/08/31 08:59:05;;;;;;;3.65;0.45;;;17.20;99.90;;;;;;5025382;28;20591;-73
2023/08/31 09:01:33;;;;;;;3.22;0.28;;;17.30;99.90;;;;;;5019631;28;20397;-74
2023/08/31 09:03:58;;;;;;;2.17;0.38;;;17.30;99.90;;;;;;5022704;28;20030;-73
2023/08/31 09:06:24;;;;;;;8.68;0.95;;;17.30;99.90;;;;;;5019444;28;20075;-74
2023/08/31 09:08:55;;;;;;;1.58;0.05;;;17.20;99.90;;;;;;5021679;28;20048;-72
2023/08/31 09:11:22;;;;;;;1.33;0.40;;;17.10;99.90;;;;;;5024883;28;20033;-76
2023/08/31 09:13:49;;;;;;;6.38;0.63;;;17.00;99.90;;;;;;5023415;28;20041;-74
2023/08/31 09:16:32;;;;;;;3.00;0.75;;;17.00;99.90;;;;;;5020986;28;20034;-72
2023/08/31 09:18:58;;;;;;;2.95;0.73;;;17.10;99.90;;;;;;5024725;28;20037;-72
2023/08/31 09:21:40;;;;;;;1.92;0.10;;;17.10;99.90;;;;;;5027685;28;20048;-72
2023/08/31 09:24:07;;;;;;;1.27;0.30;;;17.10;99.90;;;;;;5025993;28;20389;-73
2023/08/31 09:26:43;;;;;;;0.85;0.10;;;17.20;99.90;;;;;;5027508;28;20686;-73
2023/08/31 09:29:08;;;;;;;3.33;0.45;;;17.40;99.90;;;;;;5025206;28;20038;-72
2023/08/31 09:31:34;;;;;;;2.90;0.90;;;17.40;99.90;;;;;;5027085;28;20443;-74
2023/08/31 09:34:00;;;;;;;2.60;0.77;;;17.50;99.90;;;;;;5027832;28;20017;-73
2023/08/31 09:36:28;;;;;;;4.75;0.98;;;17.80;99.90;;;;;;5027097;28;20032;-73
2023/08/31 09:38:58;;;;;;;2.22;0.30;;;17.90;99.90;;;;;;5027224;28;20501;-73
2023/08/31 09:41:24;;;;;;;0.75;0.17;;;17.90;99.90;;;;;;5028141;28;20029;-72
2023/08/31 09:43:49;;;;;;;3.05;0.57;;;18.10;99.90;;;;;;5025765;28;20394;-73
2023/08/31 09:46:15;;;;;;;2.83;0.30;;;18.20;99.90;;;;;;5027402;28;20025;-72
2023/08/31 09:48:42;;;;;;;2.45;0.30;;;18.10;99.90;;;;;;5027749;28;20107;-74
2023/08/31 09:51:10;;;;;;;1.55;0.32;;;18.00;99.90;;;;;;5025007;28;20025;-73
2023/08/31 09:53:37;;;;;;;1.55;0.22;;;18.10;99.90;;;;;;5023887;28;20037;-72
2023/08/31 09:56:06;;;;;;;3.10;0.65;;;18.00;99.90;;;;;;5024540;28;20025;-73
2023/08/31 09:58:33;;;;;;;0.80;0.15;;;18.00;99.90;;;;;;5022634;28;20501;-72
2023/08/31 10:00:59;;;;;;;2.42;0.85;;;18.10;99.90;;;;;;5022904;28;20022;-73
2023/08/31 10:03:27;;;;;;;2.53;0.20;;;18.10;99.90;;;;;;5024249;28;20075;-75
2023/08/31 10:05:54;;;;;;;0.95;0.32;;;18.30;99.90;;;;;;5018354;28;20026;-74
2023/08/31 10:08:20;;;;;;;1.83;0.20;;;18.40;99.90;;;;;;5024205;28;20033;-73
2023/08/31 10:10:46;;;;;;;4.32;0.22;;;18.40;99.90;;;;;;5026202;28;20029;-73
2023/08/31 10:13:12;;;;;;;0.95;0.17;;;18.50;99.90;;;;;;5026524;28;20037;-72
2023/08/31 10:15:38;;;;;;;1.63;0.30;;;18.60;99.90;;;;;;5024018;28;20044;-72
2023/08/31 10:18:05;;;;;;;3.85;0.20;;;18.60;99.90;;;;;;5025032;28;20022;-74
2023/08/31 10:20:33;;;;;;;3.38;0.38;;;18.60;99.90;;;;;;5027458;28;20771;-72
2023/08/31 10:23:03;;;;;;;1.65;0.20;;;18.70;99.90;;;;;;5022410;28;20057;-74
2023/08/31 10:25:54;;;;;;;4.03;0.20;;;18.80;99.90;;;;;;5021630;28;20041;-74
2023/08/31 10:28:25;;;;;;;1.92;0.10;;;18.80;99.90;;;;;;5024628;28;20068;-73
2023/08/31 10:31:03;;;;;;;2.28;0.60;;;18.80;99.90;;;;;;5022421;28;20046;-73
2023/08/31 10:33:41;;;;;;;1.95;0.20;;;18.90;99.90;;;;;;5025016;28;20100;-73
2023/08/31 10:36:14;;;;;;;2.60;0.20;;;18.90;99.90;;;;;;5024742;28;20029;-72
2023/08/31 10:38:41;;;;;;;0.70;0.25;;;19.00;99.90;;;;;;5024164;28;20064;-74
2023/08/31 10:41:06;;;;;;;3.13;0.22;;;19.00;99.90;;;;;;5025830;28;20037;-72
2023/08/31 10:43:55;;;;;;;1.08;0.10;;;19.10;99.90;;;;;;5024654;28;20033;-74
2023/08/31 10:46:30;;;;;;;1.27;0.22;;;19.30;99.90;;;;;;5024191;28;20571;-73
2023/08/31 10:49:00;;;;;;;1.45;0.30;;;19.40;99.90;;;;;;5027161;28;20401;-73
2023/08/31 10:51:28;;;;;;;2.13;0.15;;;19.50;99.90;;;;;;5024878;28;20116;-73
2023/08/31 10:54:26;;;;;;;1.40;0.60;;;19.30;99.90;;;;;;5025262;28;20030;-73
2023/08/31 10:56:57;;;;;;;1.58;0.10;;;19.30;99.90;;;;;;5023472;28;20037;-74
2023/08/31 10:59:25;;;;;;;2.55;0.20;;;19.30;99.90;;;;;;5025596;28;20386;-74
2023/08/31 11:02:02;;;;;;;2.83;0.30;;;19.30;99.90;;;;;;5025406;28;20812;-74
2023/08/31 11:04:29;;;;;;;1.67;0.47;;;19.30;99.90;;;;;;5023460;28;20064;-72
2023/08/31 11:07:15;;;;;;;2.20;0.20;;;19.40;99.90;;;;;;5022279;28;20034;-74
2023/08/31 11:09:41;;;;;;;0.55;0.10;;;19.40;99.90;;;;;;5023897;28;20132;-73
2023/08/31 11:12:07;;;;;;;1.92;0.25;;;19.40;99.90;;;;;;5025712;28;20486;-74
2023/08/31 11:14:33;;;;;;;0.82;0.20;;;19.50;99.90;;;;;;5025200;28;20560;-74
2023/08/31 11:17:00;;;;;;;0.88;0.22;;;19.60;99.90;;;;;;5027518;28;20120;-74
2023/08/31 11:19:27;;;;;;;0.93;0.10;;;19.60;99.90;;;;;;5025222;28;20037;-72
2023/08/31 11:21:54;;;;;;;1.30;0.10;;;19.60;99.90;;;;;;5025168;28;20037;-74
2023/08/31 11:24:21;;;;;;;0.82;0.10;;;19.50;99.90;;;;;;5024859;28;20037;-74
2023/08/31 11:26:49;;;;;;;1.23;0.30;;;19.50;99.90;;;;;;5023340;28;20037;-72
2023/08/31 11:29:15;;;;;;;1.70;0.28;;;19.40;99.90;;;;;;5025476;28;20083;-74
2023/08/31 11:31:41;;;;;;;0.85;0.13;;;19.40;99.90;;;;;;5022660;28;20045;-74
2023/08/31 11:34:11;;;;;;;0.93;0.22;;;19.30;99.90;;;;;;5023807;28;20034;-72
2023/08/31 11:36:37;;;;;;;;;;;19.30;99.90;;;;;;5025663;28;20057;-73
2023/08/31 11:39:03;;;;;;;2.55;0.20;;;19.10;99.90;;;;;;5024791;28;19959;-72
2023/08/31 11:41:37;;;;;;;0.43;0.10;;;19.20;99.90;;;;;;5024989;28;20025;-74
2023/08/31 11:44:04;;;;;;;0.95;0.30;;;19.30;99.90;;;;;;5025477;28;20068;-72
2023/08/31 11:46:31;;;;;;;0.22;0.10;;;19.30;99.90;;;;;;5024664;28;20037;-72
2023/08/31 11:48:58;;;;;;;1.40;0.47;;;19.40;99.90;;;;;;5026532;28;20084;-71
2023/08/31 11:51:25;;;;;;;0.98;0.20;;;19.40;99.90;;;;;;5023549;28;20460;-73
2023/08/31 11:53:50;;;;;;;3.20;0.75;;;19.40;99.90;;;;;;5024538;28;20052;-74
2023/08/31 11:56:16;;;;;;;1.63;0.13;;;19.30;99.90;;;;;;5025789;28;21517;-73
2023/08/31 11:58:42;;;;;;;3.33;0.73;;;19.30;99.90;;;;;;5022671;28;20069;-71
2023/08/31 12:01:08;;;;;;;4.43;0.35;;;19.20;99.90;;;;;;5023578;28;20033;-72
2023/08/31 12:03:46;;;;;;;1.77;0.25;;;19.30;99.90;;;;;;5024851;28;20064;-74
2023/08/31 12:06:17;;;;;;;1.02;0.10;;;19.40;99.90;;;;;;5024869;28;20029;-74
2023/08/31 12:08:42;;;;;;;1.75;0.30;;;19.50;99.90;;;;;;5025438;28;20025;-74
2023/08/31 12:11:08;;;;;;;1.05;0.20;;;19.50;99.90;;;;;;5029341;28;20482;-72
2023/08/31 12:13:33;;;;;;;0.60;0.20;;;19.50;99.90;;;;;;5028715;28;20048;-72
2023/08/31 12:16:01;;;;;;;0.47;0.13;;;19.50;99.90;;;;;;5027639;28;20119;-73
2023/08/31 12:18:31;;;;;;;3.03;0.10;;;19.50;99.90;;;;;;5026606;28;20052;-72
2023/08/31 12:20:57;;;;;;;1.23;0.17;;;19.40;99.90;;;;;;5027263;28;20033;-73
2023/08/31 12:23:23;;;;;;;4.13;0.63;;;19.40;99.90;;;;;;5028756;28;20072;-72
2023/08/31 12:25:54;;;;;;;1.20;0.13;;;19.40;99.90;;;;;;5026353;28;20103;-73
2023/08/31 12:28:22;;;;;;;2.92;0.25;;;19.40;99.90;;;;;;5029063;28;20136;-72
2023/08/31 12:30:52;;;;;;;1.40;0.22;;;19.40;99.90;;;;;;5026736;28;20056;-72
2023/08/31 12:33:18;;;;;;;1.10;0.10;;;19.30;99.90;;;;;;5028813;28;20121;-73
2023/08/31 12:35:44;;;;;;;3.10;0.38;;;19.50;99.90;;;;;;5028460;28;20037;-72
2023/08/31 12:38:11;;;;;;;1.88;0.38;;;19.50;99.90;;;;;;5028299;28;20035;-73
2023/08/31 12:40:38;;;;;;;1.27;0.20;;;19.60;99.90;;;;;;5026762;28;20529;-73
2023/08/31 12:43:04;;;;;;;2.40;0.20;;;19.60;99.90;;;;;;5028578;28;20053;-73
2023/08/31 12:45:30;;;;;;;1.70;0.30;;;19.60;99.90;;;;;;5028082;28;20424;-73
2023/08/31 12:47:55;;;;;;;2.53;0.60;;;19.70;99.90;;;;;;5027762;28;20034;-73